Lehr, North Dakota
Current Conditions -  °F | °C
As of 8:15 AM on Friday 19 Dec 2014 (Local Time) from K7L2 Reporting Station
Haze Haze  
Wind Chill: 10°   Ceiling: Unl
Heat Index: 21°   Visibility: 5mi
Dew Point: 21°   Wind: 10mph
Humidity: 100%   Direction: 150°SSE
Pressure: 29.96"   Gusts: NA
Location:  46.28°N, 99.35°W
Report Text: K7L2 191415Z AUTO 15009KT 5SM BR FEW085 M06/M06 A2996 RMK AO2
Loading
Personal Weather Stations






























Interactive Weather Map New forecast layout! Learn more

10-Day Weather Forecast

Advertisements
Track Severe Weather on mobile